CDT,Max TemperatureF,Mean TemperatureF,Min TemperatureF,Max Dew PointF,MeanDew PointF,Min DewpointF,Max Humidity, Mean Humidity, Min Humidity, Max Sea Level PressureIn, Mean Sea Level PressureIn, Min Sea Level PressureIn, Max VisibilityMiles, Mean VisibilityMiles, Min VisibilityMiles, Max Wind SpeedMPH, Mean Wind SpeedMPH, Max Gust SpeedMPH,PrecipitationIn, CloudCover, Events, WindDirDegrees
2012-5-1,68,50,32,48,41,32,100,67,37,29.93,29.84,29.74,10,7,0,16,5,26,0.00,4,Fog-Rain,175
2012-5-2,75,63,51,57,51,45,100,75,34,29.87,29.76,29.62,10,9,2,14,7,17,0.34,5,Rain,212
2012-5-3,73,62,48,61,54,46,100,83,53,29.97,29.85,29.77,10,10,3,14,5,29,0.33,4,Rain,274
2012-5-4,66,54,42,46,42,37,100,70,37,30.12,30.06,29.96,10,10,4,14,8,18,0.00,4,,61
2012-5-5,62,52,42,48,42,36,100,72,48,30.12,30.08,30.04,10,10,10,13,8,18,0.01,7,Rain,115
2012-5-6,51,46,42,46,43,37,100,95,58,30.11,30.04,29.96,10,7,1,16,7,22,1.51,8,Rain,110
2012-5-7,64,54,44,50,45,37,100,81,37,29.97,29.87,29.80,10,7,1,12,3,16,0.01,7,,291
2012-5-8,59,50,42,48,42,37,100,78,45,29.91,29.82,29.79,10,10,3,16,4,20,0.20,7,Rain,340
2012-5-9,60,46,33,43,31,18,100,58,20,29.97,29.93,29.91,10,10,10,16,9,23,0.00,2,,351
2012-5-10,69,50,30,37,31,27,100,53,21,29.98,29.94,29.89,10,10,5,10,3,22,0.00,1,,245
2012-5-11,73,55,37,50,41,34,87,58,38,30.15,29.98,29.91,10,10,7,16,6,25,0.00,3,Rain,225
2012-5-12,66,52,35,45,29,16,87,45,15,30.31,30.25,30.15,10,10,10,10,5,18,0.00,2,,334
2012-5-13,71,52,32,37,30,23,100,49,18,30.26,30.17,30.03,10,10,0,16,4,22,0.00,0,Fog,249
2012-5-14,78,61,44,43,35,32,67,38,18,30.03,29.94,29.86,10,10,10,15,6,21,0.00,2,,251
2012-5-15,71,53,33,45,38,30,100,50,23,30.01,29.85,29.74,10,10,10,23,9,30,0.00,2,Rain,310
2012-5-16,60,46,32,39,28,19,100,55,20,30.12,30.08,30.01,10,9,0,14,3,21,0.00,1,Fog,345
2012-5-17,66,52,39,46,37,30,76,56,32,30.14,30.04,29.90,10,10,10,15,6,25,0.03,4,Rain,177
2012-5-18,82,66,50,46,42,37,62,40,25,29.95,29.91,29.87,10,10,10,17,7,24,0.00,0,,192
2012-5-19,86,70,53,52,47,43,72,44,25,29.97,29.93,29.88,10,10,10,18,6,31,0.00,0,,194
2012-5-20,80,62,44,63,54,45,100,73,39,30.09,29.92,29.79,10,9,2,24,7,32,0.51,4,Rain,219
2012-5-21,64,50,37,45,36,28,100,64,27,30.21,30.17,30.09,10,10,7,18,7,23,0.00,1,,338
2012-5-22,68,50,32,43,35,32,100,57,26,30.15,30.02,29.88,10,10,2,13,3,17,0.00,1,,166
2012-5-23,71,60,50,45,41,36,62,48,31,29.87,29.75,29.62,10,10,10,17,8,26,0.00,0,,173
2012-5-24,80,68,55,63,51,41,100,59,34,29.68,29.54,29.36,10,10,2,24,9,38,0.62,5,Rain,180
2012-5-25,68,58,46,59,44,34,100,64,30,30.14,29.90,29.53,10,10,5,23,12,33,0.00,2,Rain,265
2012-5-26,66,54,41,55,47,41,100,76,43,30.25,30.16,30.05,10,9,1,14,3,24,0.06,3,Rain,123
2012-5-27,77,66,55,66,60,55,100,84,61,30.08,29.89,29.74,10,9,2,16,9,21,0.66,5,Rain,151
2012-5-28,78,66,55,64,59,52,100,71,50,29.73,29.66,29.61,10,10,4,16,5,32,0.10,3,Rain,232
2012-5-29,59,52,46,55,46,39,100,78,51,29.82,29.72,29.68,10,10,7,24,8,32,0.05,6,Rain,265
2012-5-30,50,42,33,46,37,34,100,78,54,30.01,29.95,29.82,10,10,2,12,7,16,0.07,7,Rain,350
2012-5-31,60,46,32,43,34,32,100,69,34,30.08,30.02,29.97,10,10,1,13,2,,0.00,1,,59